Time;durP1;ratioP1;P1;durP2;ratioP2;P2;SDS_P1;SDS_P2;PMS_P1;PMS_P2;Temp;Humidity;BMP_temperature;BMP_pressure;BME280_temperature;BME280_humidity;BME280_pressure;Samples;Min_cycle;Max_cycle;Signal;HPM_P1;HPM_P2
2022/09/26 00:00:43;;;;;;;;;10.67;10.67;;;;;14.52;67.55;100945.88;5080382;27;45345;-79
2022/09/26 00:03:09;;;;;;;;;13.33;12.67;;;;;14.49;67.71;100936.38;5080238;27;45240;-79
2022/09/26 00:05:35;;;;;;;;;12.67;12.67;;;;;14.53;67.99;100947.53;5080517;27;45251;-79
2022/09/26 00:08:01;;;;;;;;;12.00;11.00;;;;;14.52;67.93;100937.88;5079958;27;45320;-79
2022/09/26 00:10:27;;;;;;;;;9.33;9.00;;;;;14.45;68.02;100923.59;5079876;27;45344;-79
2022/09/26 00:12:54;;;;;;;;;10.33;10.00;;;;;14.43;68.08;100923.00;5079871;27;45483;-80
2022/09/26 00:15:19;;;;;;;;;11.00;11.00;;;;;14.41;68.22;100923.19;5079938;27;45404;-80
2022/09/26 00:17:44;;;;;;;;;8.00;8.00;;;;;14.36;68.54;100922.94;5083933;27;45487;-80
2022/09/26 00:20:10;;;;;;;;;11.00;10.00;;;;;14.38;68.57;100915.56;5079946;27;45459;-80
2022/09/26 00:22:35;;;;;;;;;7.67;7.67;;;;;14.39;68.56;100914.53;5079861;27;45323;-79
2022/09/26 00:25:00;;;;;;;;;9.00;8.67;;;;;14.30;68.48;100900.47;5079960;27;45282;-79
2022/09/26 00:27:26;;;;;;;;;2.00;2.00;;;;;14.24;68.21;100885.22;5080083;27;45297;-80
2022/09/26 00:29:51;;;;;;;;;8.67;8.67;;;;;14.33;68.61;100896.56;5078530;28;46873;-79
2022/09/26 00:32:17;;;;;;;;;11.00;11.00;;;;;14.41;68.56;100898.28;5078414;28;45380;-79
2022/09/26 00:34:42;;;;;;;;;13.00;10.00;;;;;14.38;68.70;100897.66;5080125;27;45406;-79
2022/09/26 00:37:07;;;;;;;;;11.00;9.33;;;;;14.38;68.87;100894.16;5079886;27;45357;-79
2022/09/26 00:39:33;;;;;;;;;10.33;10.33;;;;;14.33;68.73;100891.22;5078190;28;47189;-79
2022/09/26 00:41:58;;;;;;;;;11.00;11.00;;;;;14.10;69.88;100887.78;5079738;27;45305;-79
2022/09/26 00:44:40;;;;;;;;;11.33;10.33;;;;;14.08;69.59;100879.16;5079803;27;45240;-79
2022/09/26 00:47:14;;;;;;;;;10.00;10.00;;;;;14.00;69.57;100855.25;5079624;27;45440;-79
2022/09/26 00:49:43;;;;;;;;;13.67;11.67;;;;;14.17;69.48;100889.69;5065989;28;46753;-80
2022/09/26 00:52:15;;;;;;;;;11.00;10.00;;;;;14.05;70.11;100878.72;5079348;27;45455;-79
2022/09/26 00:54:44;;;;;;;;;8.67;8.67;;;;;14.32;69.40;100878.91;5065190;28;45419;-79
2022/09/26 00:57:17;;;;;;;;;9.00;9.00;;;;;14.39;69.20;100890.44;5078077;28;46149;-79
2022/09/26 00:59:47;;;;;;;;;10.33;8.67;;;;;14.34;69.25;100883.00;5078070;28;48359;-79
2022/09/26 01:02:14;;;;;;;;;9.33;8.33;;;;;14.30;68.88;100870.25;5079529;28;45179;-80
2022/09/26 01:04:41;;;;;;;;;8.67;8.67;;;;;14.31;69.16;100870.03;5079531;27;45349;-79
2022/09/26 01:07:20;;;;;;;;;7.33;7.00;;;;;14.35;68.86;100863.31;5079357;27;45373;-80
2022/09/26 01:09:46;;;;;;;;;11.00;9.00;;;;;14.38;68.97;100884.31;5078991;27;46382;-79
2022/09/26 01:12:13;;;;;;;;;8.00;8.00;;;;;14.38;69.32;100875.44;5079338;27;45401;-79
2022/09/26 01:14:40;;;;;;;;;7.00;6.00;;;;;14.33;69.27;100859.16;5077833;28;45369;-80
2022/09/26 01:17:07;;;;;;;;;7.00;6.00;;;;;14.34;69.18;100863.50;5083198;27;45333;-79
2022/09/26 01:19:41;;;;;;;;;7.67;6.33;;;;;14.39;69.62;100874.41;5077842;28;46983;-80
2022/09/26 01:22:23;;;;;;;;;7.00;7.00;;;;;14.40;69.55;100862.72;5079329;28;45388;-79
2022/09/26 01:25:07;;;;;;;;;7.00;7.00;;;;;14.39;69.56;100866.38;5074290;28;45346;-79
2022/09/26 01:27:38;;;;;;;;;5.00;5.00;;;;;14.39;69.75;100869.91;5067304;28;46391;-79
2022/09/26 01:30:06;;;;;;;;;6.67;6.67;;;;;14.33;69.81;100859.16;5082751;27;45616;-79
2022/09/26 01:32:50;;;;;;;;;6.67;6.67;;;;;14.41;69.75;100864.34;5082589;27;45250;-79
2022/09/26 01:35:21;;;;;;;;;7.67;6.67;;;;;14.42;69.89;100860.66;5082799;27;45264;-79
2022/09/26 01:38:11;;;;;;;;;6.33;5.00;;;;;14.42;69.82;100860.66;5069127;28;45543;-79
2022/09/26 01:40:36;;;;;;;;;4.67;4.67;;;;;14.43;69.86;100861.50;5080882;28;48568;-79
2022/09/26 01:43:11;;;;;;;;;5.00;5.00;;;;;14.43;69.84;100851.63;5082732;27;45204;-79
2022/09/26 01:45:52;;;;;;;;;3.33;3.33;;;;;14.35;69.90;100838.41;5081250;28;45391;-79
2022/09/26 01:48:31;;;;;;;;;5.67;3.00;;;;;14.35;69.78;100835.72;5081286;28;46043;-79
2022/09/26 01:51:12;;;;;;;;;4.00;4.00;;;;;14.38;69.49;100846.88;5064139;28;47247;-79
2022/09/26 01:53:45;;;;;;;;;2.67;2.67;;;;;14.37;69.58;100831.03;5082311;27;45503;-79
2022/09/26 01:56:14;;;;;;;;;3.33;3.33;;;;;14.17;69.71;100833.56;5082145;27;45337;-79
2022/09/26 01:58:46;;;;;;;;;3.67;3.67;;;;;14.11;70.15;100836.00;5081190;28;46654;-79
2022/09/26 02:01:14;;;;;;;;;2.00;2.00;;;;;14.15;70.39;100839.09;5082307;27;45446;-79
2022/09/26 02:03:55;;;;;;;;;2.33;2.33;;;;;14.13;70.09;100823.25;5080894;28;45161;-79
2022/09/26 02:06:39;;;;;;;;;1.67;1.67;;;;;14.08;70.38;100815.03;5082344;27;45288;-79
2022/09/26 02:09:15;;;;;;;;;5.00;3.00;;;;;14.05;70.39;100803.88;5082266;28;45321;-79
2022/09/26 02:11:47;;;;;;;;;2.00;2.00;;;;;14.03;70.03;100789.91;5066365;28;49421;-80
2022/09/26 02:14:20;;;;;;;;;4.00;2.00;;;;;14.13;70.04;100801.06;5081959;27;45191;-80
2022/09/26 02:16:48;;;;;;;;;1.33;1.33;;;;;14.19;70.09;100810.94;5080393;28;45350;-79
2022/09/26 02:19:21;;;;;;;;;3.00;3.00;;;;;14.10;69.90;100796.13;5082073;27;45524;-79
2022/09/26 02:21:48;;;;;;;;;2.00;2.00;;;;;14.17;70.05;100805.00;5081631;27;45554;-79
2022/09/26 02:24:13;;;;;;;;;3.33;2.67;;;;;14.10;70.13;100796.94;5081657;27;45317;-79
2022/09/26 02:26:41;;;;;;;;;2.00;2.00;;;;;14.03;70.05;100789.91;5082058;27;45490;-79
2022/09/26 02:29:07;;;;;;;;;1.00;1.00;;;;;14.07;70.25;100797.31;5081747;28;45658;-79
2022/09/26 02:31:37;;;;;;;;;1.67;1.67;;;;;14.00;69.97;100777.75;5081849;27;45605;-80
2022/09/26 02:34:03;;;;;;;;;3.00;3.00;;;;;14.03;70.44;100773.88;5080207;28;46133;-79
2022/09/26 02:36:32;;;;;;;;;3.67;2.67;;;;;13.97;70.24;100756.75;5081602;27;45338;-79
2022/09/26 02:38:58;;;;;;;;;2.00;2.00;;;;;14.01;70.38;100769.53;5081360;27;45291;-79
2022/09/26 02:41:49;;;;;;;;;3.00;3.00;;;;;14.09;70.22;100770.41;5081567;27;46537;-79
2022/09/26 02:44:46;;;;;;;;;2.67;2.67;;;;;14.08;70.46;100766.09;5081606;27;45285;-79
2022/09/26 02:47:45;;;;;;;;;2.00;2.00;;;;;14.06;70.60;100763.59;5080226;28;45350;-79
2022/09/26 02:50:10;;;;;;;;;3.33;2.33;;;;;14.07;70.40;100761.78;5081424;28;45518;-79
2022/09/26 02:53:11;;;;;;;;;0.00;0.00;;;;;14.09;70.46;100751.69;5081321;27;45328;-80
2022/09/26 02:55:46;;;;;;;;;3.00;3.00;;;;;14.13;70.23;100732.41;5080952;27;45366;-79
2022/09/26 02:58:23;;;;;;;;;3.00;3.00;;;;;14.17;70.33;100735.50;5068227;28;45390;-79
2022/09/26 03:00:52;;;;;;;;;2.00;2.00;;;;;14.20;70.61;100728.94;5081664;27;45298;-79
2022/09/26 03:03:25;;;;;;;;;3.00;3.00;;;;;14.21;70.31;100715.38;5067831;28;45679;-79
2022/09/26 03:05:54;;;;;;;;;2.00;2.00;;;;;14.21;70.13;100707.34;5081331;27;45362;-79
2022/09/26 03:08:25;;;;;;;;;0.67;0.67;;;;;14.25;70.41;100703.25;5066252;28;45311;-79
2022/09/26 03:10:54;;;;;;;;;2.00;2.00;;;;;14.15;70.16;100681.41;5081061;27;45472;-79
2022/09/26 03:13:23;;;;;;;;;4.00;2.67;;;;;13.78;70.70;100683.50;5080676;28;46186;-79
2022/09/26 03:15:54;;;;;;;;;2.33;2.33;;;;;14.10;70.62;100684.69;5082906;27;45468;-79
2022/09/26 03:18:23;;;;;;;;;2.33;2.33;;;;;14.19;70.39;100685.34;5082589;27;45591;-79
2022/09/26 03:20:53;;;;;;;;;5.00;3.00;;;;;14.16;70.41;100682.25;5081090;27;45473;-79
2022/09/26 03:23:22;;;;;;;;;3.00;3.00;;;;;14.18;70.46;100681.03;5080726;27;46080;-79
2022/09/26 03:25:58;;;;;;;;;3.33;3.00;;;;;14.05;70.80;100660.41;5079395;28;45374;-79
2022/09/26 03:28:23;;;;;;;;;2.67;2.67;;;;;14.19;70.53;100671.97;5081018;27;45446;-79
2022/09/26 03:30:48;;;;;;;;;2.67;2.67;;;;;14.20;70.41;100670.13;5080618;27;45187;-79
2022/09/26 03:33:14;;;;;;;;;2.33;2.00;;;;;14.22;69.97;100663.56;5080841;27;46850;-79
2022/09/26 03:35:39;;;;;;;;;2.00;2.00;;;;;14.27;70.13;100662.94;5080827;27;45299;-79
2022/09/26 03:38:04;;;;;;;;;3.00;3.00;;;;;14.28;69.98;100667.28;5081087;27;45300;-79
2022/09/26 03:40:30;;;;;;;;;3.33;3.33;;;;;14.34;70.05;100661.13;5079097;27;46509;-79
2022/09/26 03:42:55;;;;;;;;;4.00;3.00;;;;;14.30;69.50;100643.84;5080737;27;45647;-80
2022/09/26 03:45:20;;;;;;;;;2.00;2.00;;;;;14.32;69.26;100646.31;5080867;27;45290;-79
2022/09/26 03:47:46;;;;;;;;;4.00;3.00;;;;;14.36;69.59;100647.56;5080579;27;45290;-79
2022/09/26 03:50:13;;;;;;;;;3.00;3.00;;;;;14.29;69.76;100630.69;5079902;27;45284;-79
2022/09/26 03:52:39;;;;;;;;;2.00;2.00;;;;;14.32;69.59;100631.09;5080310;27;47241;-79
2022/09/26 03:55:04;;;;;;;;;2.00;2.00;;;;;14.37;69.74;100625.97;5079061;28;46205;-79
2022/09/26 03:57:29;;;;;;;;;2.00;2.00;;;;;14.36;69.69;100621.66;5080331;28;45361;-79
2022/09/26 03:59:55;;;;;;;;;2.00;2.00;;;;;14.41;69.70;100623.72;5079211;28;45393;-79
2022/09/26 04:02:21;;;;;;;;;3.67;2.00;;;;;14.35;69.60;100605.81;5080123;27;46040;-80
2022/09/26 04:04:46;;;;;;;;;3.00;2.00;;;;;14.32;69.78;100590.19;5080147;27;45313;-80
2022/09/26 04:07:11;;;;;;;;;2.00;1.33;;;;;14.37;69.67;100598.44;5080485;27;45472;-79
2022/09/26 04:09:37;;;;;;;;;2.00;2.00;;;;;14.31;69.67;100588.53;5080103;27;45434;-79
2022/09/26 04:12:02;;;;;;;;;4.67;3.00;;;;;14.32;69.50;100580.31;5080277;27;45405;-79
2022/09/26 04:14:28;;;;;;;;;2.00;2.00;;;;;14.33;69.42;100589.97;5078840;28;45345;-80
2022/09/26 04:16:53;;;;;;;;;2.00;2.00;;;;;14.33;69.91;100575.78;5084408;27;45303;-79
2022/09/26 04:19:18;;;;;;;;;2.00;1.67;;;;;14.35;69.24;100584.44;5078772;27;45836;-80
2022/09/26 04:21:44;;;;;;;;;2.00;2.00;;;;;14.30;68.88;100571.66;5078703;28;47309;-79
2022/09/26 04:24:14;;;;;;;;;3.00;3.00;;;;;14.34;68.74;100577.44;5080014;27;45346;-80
2022/09/26 04:26:41;;;;;;;;;1.00;1.00;;;;;14.31;68.53;100575.16;5080431;28;45412;-80
2022/09/26 04:29:06;;;;;;;;;2.67;1.33;;;;;14.34;68.30;100582.78;5079777;27;45345;-80
2022/09/26 04:31:35;;;;;;;;;2.00;2.00;;;;;14.35;68.65;100573.72;5079968;27;45369;-80
2022/09/26 04:34:01;;;;;;;;;2.00;2.00;;;;;14.32;68.56;100574.13;5079954;28;45258;-79
2022/09/26 04:36:26;;;;;;;;;2.00;1.67;;;;;14.27;68.64;100550.69;5080085;27;45481;-79
2022/09/26 04:38:52;;;;;;;;;2.33;1.67;;;;;14.31;68.53;100553.78;5079483;27;45266;-79
2022/09/26 04:41:19;;;;;;;;;2.67;2.67;;;;;14.35;68.57;100547.00;5079752;27;45198;-80
2022/09/26 04:43:45;;;;;;;;;3.00;2.00;;;;;14.35;68.52;100544.31;5078495;28;45393;-80
2022/09/26 04:46:13;;;;;;;;;2.00;2.00;;;;;14.41;68.28;100535.50;5078500;28;45387;-79
2022/09/26 04:48:39;;;;;;;;;2.00;2.00;;;;;14.38;67.98;100523.38;5079925;27;45460;-80
2022/09/26 04:51:06;;;;;;;;;4.00;3.67;;;;;14.28;68.27;100506.91;5079332;27;45292;-79
2022/09/26 04:53:31;;;;;;;;;2.00;2.00;;;;;14.33;68.23;100506.28;5079695;27;45336;-79
2022/09/26 04:55:57;;;;;;;;;2.00;1.00;;;;;14.35;68.16;100515.75;5078178;28;45231;-80
2022/09/26 04:58:22;;;;;;;;;4.00;2.00;;;;;14.36;68.13;100516.56;5078376;28;45454;-80
2022/09/26 05:00:48;;;;;;;;;2.67;1.67;;;;;14.37;67.92;100518.22;5077741;28;47156;-79
2022/09/26 05:03:15;;;;;;;;;1.00;1.00;;;;;14.36;68.06;100503.19;5078154;28;45754;-80
2022/09/26 05:05:43;;;;;;;;;1.33;1.33;;;;;14.43;68.02;100516.56;5078308;28;45374;-79
2022/09/26 05:08:10;;;;;;;;;2.00;2.00;;;;;14.23;67.89;100475.44;5079119;27;45506;-79
2022/09/26 05:10:36;;;;;;;;;3.67;3.67;;;;;14.27;68.04;100484.69;5079306;27;45269;-80
2022/09/26 05:13:02;;;;;;;;;5.33;5.33;;;;;14.39;67.54;100495.59;5077849;28;45244;-80
2022/09/26 05:15:28;;;;;;;;;3.00;3.00;;;;;14.34;67.46;100486.56;5079687;27;45200;-80
2022/09/26 05:17:59;;;;;;;;;5.00;5.00;;;;;14.34;67.86;100476.66;5083163;27;45561;-79
2022/09/26 05:20:30;;;;;;;;;5.00;4.00;;;;;14.43;67.92;100489.84;5079519;28;46610;-80
2022/09/26 05:22:59;;;;;;;;;4.00;4.00;;;;;14.32;67.86;100475.22;5079024;27;45420;-80
2022/09/26 05:28:12;;;;;;;;;2.00;2.00;;;;;14.36;67.84;100476.47;5079336;28;45267;-80
2022/09/26 05:30:38;;;;;;;;;2.67;1.00;;;;;14.26;67.59;100453.66;5079010;27;45207;-80
2022/09/26 05:33:04;;;;;;;;;2.67;2.67;;;;;14.34;68.01;100468.63;5079458;27;45696;-80
2022/09/26 05:35:33;;;;;;;;;2.67;2.67;;;;;14.30;67.92;100447.91;5079210;27;45321;-80
2022/09/26 05:38:02;;;;;;;;;3.33;3.00;;;;;14.25;67.90;100443.97;5079065;28;45712;-80
2022/09/26 05:43:13;;;;;;;;;2.00;2.00;;;;;14.22;67.95;100440.91;5079105;28;45306;-80
2022/09/26 05:45:38;;;;;;;;;1.00;1.00;;;;;14.16;67.90;100431.88;5079072;27;45456;-80
2022/09/26 05:48:05;;;;;;;;;3.00;2.67;;;;;14.23;67.99;100448.72;5077566;27;45549;-80
2022/09/26 05:50:31;;;;;;;;;2.00;2.00;;;;;14.23;68.00;100450.56;5079028;27;46258;-80
2022/09/26 05:52:59;;;;;;;;;1.00;1.00;;;;;14.14;67.74;100440.09;5078842;27;45382;-80
2022/09/26 05:55:25;;;;;;;;;1.67;1.00;;;;;14.14;67.71;100440.09;5078959;27;45306;-80
2022/09/26 05:57:52;;;;;;;;;1.67;1.67;;;;;14.24;67.73;100454.88;5078637;27;45339;-80
2022/09/26 06:00:18;;;;;;;;;2.67;2.67;;;;;14.24;67.56;100455.69;5078845;27;45238;-81
2022/09/26 06:02:43;;;;;;;;;4.00;2.33;;;;;14.18;67.95;100434.31;5078330;27;45276;-79
2022/09/26 06:05:09;;;;;;;;;5.00;4.00;;;;;14.16;68.26;100429.19;5079002;27;45268;-80
2022/09/26 06:07:34;;;;;;;;;2.33;2.33;;;;;14.20;67.85;100432.25;5078007;27;45504;-79
2022/09/26 06:09:59;;;;;;;;;2.00;2.00;;;;;14.27;68.04;100439.25;5077617;27;46509;-81
2022/09/26 06:12:25;;;;;;;;;2.00;2.00;;;;;14.25;68.04;100437.81;5079304;27;45280;-79
2022/09/26 06:14:52;;;;;;;;;3.00;2.00;;;;;14.25;68.25;100433.28;5082375;27;45337;-80
2022/09/26 06:17:17;;;;;;;;;4.00;4.00;;;;;14.24;68.20;100423.63;5082888;27;45462;-80
2022/09/26 06:19:43;;;;;;;;;4.00;4.00;;;;;14.29;67.84;100430.19;5082041;27;45333;-80
2022/09/26 06:22:08;;;;;;;;;4.33;3.67;;;;;14.29;67.99;100427.53;5082442;27;45298;-80
2022/09/26 06:24:34;;;;;;;;;3.00;1.00;;;;;14.29;68.33;100428.34;5082196;27;45321;-80
2022/09/26 06:26:59;;;;;;;;;2.00;2.00;;;;;14.30;67.94;100416.63;5082046;27;45296;-80
2022/09/26 06:29:25;;;;;;;;;2.00;2.00;;;;;14.38;68.11;100420.94;5082260;27;46522;-80
2022/09/26 06:31:50;;;;;;;;;2.00;2.00;;;;;14.32;67.82;100419.94;5083027;28;45366;-80
2022/09/26 06:34:15;;;;;;;;;1.00;1.00;;;;;14.28;67.38;100413.34;5082258;27;45468;-81
2022/09/26 06:36:41;;;;;;;;;1.00;1.00;;;;;14.37;67.68;100432.69;5080675;28;47271;-78
2022/09/26 06:39:07;;;;;;;;;3.00;3.00;;;;;14.35;67.67;100419.50;5081465;27;46164;-79
2022/09/26 06:41:33;;;;;;;;;2.00;2.00;;;;;14.35;67.99;100410.66;5082102;28;45409;-80
2022/09/26 06:44:00;;;;;;;;;1.67;1.67;;;;;14.34;67.17;100401.00;5081871;27;45381;-80
2022/09/26 06:46:26;;;;;;;;;0.00;0.00;;;;;14.40;67.25;100408.19;5081573;27;45329;-79
2022/09/26 06:48:52;;;;;;;;;1.00;1.00;;;;;14.44;67.17;100401.41;5081549;27;45494;-80
2022/09/26 06:51:18;;;;;;;;;3.67;2.00;;;;;14.43;66.94;100405.13;5081024;27;45345;-80
2022/09/26 06:53:44;;;;;;;;;3.00;3.00;;;;;14.50;67.11;100407.75;5080402;28;45394;-80
2022/09/26 06:56:10;;;;;;;;;2.00;2.00;;;;;14.45;66.60;100392.34;5080353;27;45377;-80
2022/09/26 06:58:36;;;;;;;;;2.67;2.00;;;;;14.52;66.63;100387.78;5080688;27;45376;-80
2022/09/26 07:01:02;;;;;;;;;4.67;3.00;;;;;14.50;66.55;100394.41;5079617;27;45356;-79
2022/09/26 07:03:28;;;;;;;;;1.00;1.00;;;;;14.53;66.83;100388.63;5081149;27;45448;-80
2022/09/26 07:05:55;;;;;;;;;2.00;1.33;;;;;14.57;66.65;100376.47;5079615;27;45968;-79
2022/09/26 07:08:20;;;;;;;;;12.33;12.33;;;;;14.55;66.72;100367.88;5069061;28;45340;-81
2022/09/26 07:10:46;;;;;;;;;3.00;3.00;;;;;14.61;67.01;100367.00;5079607;27;45370;-79
2022/09/26 07:13:14;;;;;;;;;1.33;1.33;;;;;14.66;66.53;100365.56;5078196;28;45475;-79
2022/09/26 07:15:43;;;;;;;;;1.33;1.33;;;;;14.71;66.80;100363.06;5080136;27;45406;-78
2022/09/26 07:18:09;;;;;;;;;2.00;2.00;;;;;14.73;66.62;100361.81;5081882;27;47755;-80
2022/09/26 07:20:39;;;;;;;;;2.00;2.00;;;;;14.79;66.66;100360.19;5081223;27;45298;-75
2022/09/26 07:23:07;;;;;;;;;3.33;1.67;;;;;14.79;66.91;100354.03;5080254;27;45252;-80
2022/09/26 07:25:33;;;;;;;;;2.00;2.00;;;;;14.85;66.55;100340.59;5077950;28;46139;-81
2022/09/26 07:27:59;;;;;;;;;3.00;1.33;;;;;14.91;65.90;100332.78;5078668;28;46951;-80
2022/09/26 07:30:25;;;;;;;;;2.67;2.67;;;;;14.96;66.00;100336.44;5079195;28;45382;-81
2022/09/26 07:32:50;;;;;;;;;2.00;2.00;;;;;15.00;66.00;100332.31;5081040;27;45541;-80
2022/09/26 07:35:16;;;;;;;;;2.00;2.00;;;;;15.09;65.76;100316.00;5080030;28;45766;-81
2022/09/26 07:37:42;;;;;;;;;2.67;2.67;;;;;15.14;65.74;100327.72;5080816;28;46299;-80
2022/09/26 07:40:09;;;;;;;;;3.00;3.00;;;;;15.17;65.53;100329.13;5081623;28;45299;-80
2022/09/26 07:42:37;;;;;;;;;5.00;4.00;;;;;15.13;65.13;100323.41;5080794;27;45256;-80
2022/09/26 07:45:04;;;;;;;;;3.00;3.00;;;;;15.10;65.10;100290.88;5080361;28;46107;-82
2022/09/26 07:50:16;;;;;;;;;1.33;1.33;;;;;15.20;65.01;100298.44;5083307;28;45326;-81
2022/09/26 07:52:47;;;;;;;;;3.00;3.00;;;;;15.21;64.66;100289.38;5081028;28;45347;-82
2022/09/26 07:55:16;;;;;;;;;4.33;2.00;;;;;15.27;64.83;100286.63;5079953;28;46339;-81
2022/09/26 07:57:41;;;;;;;;;4.00;2.00;;;;;15.25;64.65;100274.50;5081997;27;45314;-81
2022/09/26 08:00:11;;;;;;;;;4.00;2.00;;;;;15.34;65.05;100275.06;5081396;27;45277;-82
2022/09/26 08:02:39;;;;;;;;;3.00;2.00;;;;;15.43;64.71;100276.44;5081157;28;45332;-81
2022/09/26 08:05:05;;;;;;;;;2.00;2.00;;;;;15.49;64.40;100262.19;5083801;27;45369;-82
2022/09/26 08:07:32;;;;;;;;;2.00;2.00;;;;;15.56;63.59;100264.00;5084585;27;45385;-81
2022/09/26 08:10:00;;;;;;;;;1.00;1.00;;;;;15.64;63.42;100264.53;5083036;27;45297;-80
2022/09/26 08:12:25;;;;;;;;;1.33;1.33;;;;;15.73;64.13;100262.41;5080308;27;45349;-80
2022/09/26 08:14:51;;;;;;;;;1.67;1.67;;;;;15.88;64.55;100271.94;5079706;27;45322;-79
2022/09/26 08:17:18;;;;;;;;;2.00;1.00;;;;;15.84;64.76;100247.47;5084500;27;45497;-79
2022/09/26 08:19:44;;;;;;;;;1.00;1.00;;;;;15.93;63.58;100252.50;5080414;27;45474;-79
2022/09/26 08:22:11;;;;;;;;;2.33;2.33;;;;;15.90;63.39;100245.75;5081632;27;45317;-79
2022/09/26 08:24:37;;;;;;;;;3.00;3.00;;;;;15.92;63.66;100249.00;5086583;28;46287;-80
2022/09/26 08:27:03;;;;;;;;;1.00;1.00;;;;;15.99;63.28;100240.94;5073766;27;45406;-81
2022/09/26 08:29:33;;;;;;;;;1.67;1.33;;;;;15.94;63.39;100232.72;5081576;28;45313;-79
2022/09/26 08:32:02;;;;;;;;;2.00;2.00;;;;;16.03;62.81;100242.13;5080698;28;45323;-80
2022/09/26 08:34:27;;;;;;;;;3.00;2.00;;;;;16.00;63.16;100231.84;5081999;27;45509;-80
2022/09/26 08:36:53;;;;;;;;;2.00;2.00;;;;;16.08;63.24;100236.94;5081817;28;48319;-81
2022/09/26 08:39:21;;;;;;;;;4.00;3.00;;;;;16.06;62.96;100227.47;5080054;28;45975;-82
2022/09/26 08:41:56;;;;;;;;;1.33;1.33;;;;;16.17;62.15;100242.81;5082884;27;45358;-81
2022/09/26 08:46:25;;;;;;;;;3.00;2.67;;;;;16.23;61.41;100239.25;5080443;28;46014;-82
2022/09/26 08:48:02;;;;;;;;;2.00;1.00;;;;;16.22;61.28;100232.22;5082024;27;45441;-79
2022/09/26 08:50:43;;;;;;;;;2.67;1.00;;;;;16.22;61.57;100223.38;5086530;28;45829;-79
2022/09/26 08:53:14;;;;;;;;;1.33;1.00;;;;;16.23;61.17;100212.44;5087141;28;45399;-80
2022/09/26 08:55:43;;;;;;;;;1.33;1.33;;;;;16.31;60.92;100221.22;5094275;27;46463;-82
2022/09/26 08:58:17;;;;;;;;;3.00;3.00;;;;;16.39;60.86;100220.88;5073728;28;45496;-80
2022/09/26 09:00:44;;;;;;;;;3.00;1.00;;;;;16.45;60.81;100214.63;5093977;27;45218;-79
2022/09/26 09:03:35;;;;;;;;;2.33;2.33;;;;;16.38;61.11;100206.66;5088116;27;45523;-80
2022/09/26 09:06:10;;;;;;;;;0.67;0.67;;;;;16.43;61.26;100200.59;5085542;28;45892;-81
2022/09/26 09:08:43;;;;;;;;;1.67;1.00;;;;;16.43;60.47;100184.50;5085641;27;45339;-78
2022/09/26 09:11:27;;;;;;;;;2.00;1.00;;;;;16.53;60.87;100190.16;5078529;28;45371;-78
2022/09/26 09:13:58;;;;;;;;;4.67;4.67;;;;;16.64;60.38;100201.19;5080276;28;45340;-78
2022/09/26 09:16:32;;;;;;;;;6.33;6.33;;;;;16.69;59.60;100187.06;5088952;27;45870;-80
2022/09/26 09:19:17;;;;;;;;;3.00;2.00;;;;;16.73;59.60;100177.53;5090344;28;47550;-80
2022/09/26 09:22:01;;;;;;;;;2.00;2.00;;;;;16.77;59.81;100162.59;5090142;27;45563;-79
2022/09/26 09:24:38;;;;;;;;;3.00;2.00;;;;;16.74;59.68;100158.50;5084931;28;45344;-81
2022/09/26 09:27:18;;;;;;;;;1.33;1.33;;;;;16.83;59.14;100140.22;5084672;27;45507;-80
2022/09/26 09:30:14;;;;;;;;;0.00;0.00;;;;;16.97;59.10;100148.06;5079800;27;45277;-80
2022/09/26 09:32:58;;;;;;;;;1.00;1.00;;;;;16.88;58.05;100121.53;5079295;28;45192;-79
2022/09/26 09:35:40;;;;;;;;;3.00;2.00;;;;;17.00;58.45;100123.44;5085541;28;45250;-79
2022/09/26 09:38:12;;;;;;;;;2.00;2.00;;;;;17.06;58.03;100121.69;5071650;28;46005;-80
2022/09/26 09:40:56;;;;;;;;;2.00;2.00;;;;;17.07;57.25;100121.47;5078084;28;47241;-78
2022/09/26 09:43:30;;;;;;;;;1.00;1.00;;;;;17.12;57.87;100116.22;5078267;28;45748;-79
2022/09/26 09:46:21;;;;;;;;;3.00;3.00;;;;;17.04;57.54;100090.50;5080629;27;45149;-79
2022/09/26 09:48:47;;;;;;;;;3.00;3.00;;;;;17.13;56.37;100114.34;5078999;27;45893;-79
2022/09/26 09:51:37;;;;;;;;;2.33;2.00;;;;;17.18;56.37;100116.34;5078173;27;47954;-79
2022/09/26 09:54:05;;;;;;;;;2.00;1.33;;;;;17.23;56.77;100103.00;5075767;27;45266;-80
2022/09/26 09:57:06;;;;;;;;;4.00;2.00;;;;;17.31;55.86;100093.78;5078407;28;45418;-79
2022/09/26 09:59:44;;;;;;;;;2.67;2.67;;;;;17.42;55.84;100087.59;5079844;27;45488;-80
2022/09/26 10:02:30;;;;;;;;;2.00;2.00;;;;;17.41;55.10;100073.34;5082378;27;45388;-80
2022/09/26 10:06:16;;;;;;;;;1.00;1.00;;;;;17.66;55.33;100082.19;5082806;28;45294;-81
2022/09/26 10:08:39;;;;;;;;;1.33;1.00;;;;;17.38;55.14;100067.63;5077804;28;45311;-79
2022/09/26 10:11:18;;;;;;;;;2.00;2.00;;;;;17.44;55.35;100073.91;5082145;28;45386;-80
2022/09/26 10:13:44;;;;;;;;;2.67;2.67;;;;;17.19;55.69;100048.16;5082181;27;45400;-80
2022/09/26 10:16:13;;;;;;;;;1.00;1.00;;;;;17.43;54.74;100046.25;5087639;27;45290;-81
2022/09/26 10:19:08;;;;;;;;;1.00;1.00;;;;;17.47;54.02;100052.78;5078503;28;45348;-78
2022/09/26 10:21:39;;;;;;;;;1.00;1.00;;;;;17.46;54.35;100039.59;5083265;27;45157;-79
2022/09/26 10:24:21;;;;;;;;;3.00;3.00;;;;;17.58;54.64;100042.25;5093327;27;47567;-78
2022/09/26 10:26:48;;;;;;;;;2.00;0.00;;;;;17.72;54.13;100032.03;5091654;27;45350;-80
2022/09/26 10:29:23;;;;;;;;;1.00;1.00;;;;;17.76;52.59;100025.94;5084421;27;44848;-80
2022/09/26 10:31:59;;;;;;;;;1.00;1.00;;;;;17.78;53.48;100015.75;5080265;27;45416;-82
2022/09/26 10:34:27;;;;;;;;;1.00;1.00;;;;;17.82;53.01;100021.47;5093834;27;47213;-82
2022/09/26 10:36:54;;;;;;;;;1.00;1.00;;;;;17.78;53.59;100010.38;5080242;27;45478;-81
2022/09/26 10:42:19;;;;;;;;;2.00;2.00;;;;;17.79;53.11;100003.97;5081954;28;45279;-81
2022/09/26 10:44:46;;;;;;;;;1.00;1.00;;;;;17.81;53.47;99997.53;5079182;28;47269;-81
2022/09/26 10:47:17;;;;;;;;;2.67;2.00;;;;;17.80;53.12;99988.66;5072823;28;45407;-81
2022/09/26 10:49:51;;;;;;;;;0.00;0.00;;;;;17.86;52.86;99987.69;5080758;28;45385;-80
2022/09/26 10:52:27;;;;;;;;;1.67;1.67;;;;;17.85;53.84;99978.00;5079193;28;46305;-79
2022/09/26 10:55:08;;;;;;;;;0.67;0.67;;;;;17.93;54.66;99963.34;5081102;28;46382;-80
2022/09/26 10:57:50;;;;;;;;;2.00;1.00;;;;;17.86;55.06;99955.44;5068079;28;45284;-79
2022/09/26 11:00:38;;;;;;;;;1.00;1.00;;;;;17.85;54.39;99947.63;5082044;28;45381;-78
2022/09/26 11:03:06;;;;;;;;;1.00;1.00;;;;;17.90;54.34;99953.09;5071319;27;45264;-78
2022/09/26 11:05:56;;;;;;;;;3.00;1.00;;;;;17.79;55.27;99939.47;5080864;28;46719;-76
2022/09/26 11:08:50;;;;;;;;;3.00;0.00;;;;;17.94;54.89;99956.91;5082588;27;45330;-78
2022/09/26 11:11:16;;;;;;;;;2.33;2.00;;;;;17.81;55.30;99949.16;5080504;28;45397;-79
2022/09/26 11:13:48;;;;;;;;;3.67;1.67;;;;;17.74;55.21;99952.81;5082977;27;45202;-79
2022/09/26 11:16:18;;;;;;;;;1.00;1.00;;;;;17.63;57.02;99972.50;5087088;27;47154;-78
2022/09/26 11:19:02;;;;;;;;;2.67;2.67;;;;;17.49;56.86;99980.84;5085256;27;45430;-79
2022/09/26 11:21:46;;;;;;;;;1.33;1.00;;;;;17.40;56.99;99950.03;5080113;28;45371;-79
2022/09/26 11:24:14;;;;;;;;;1.00;1.00;;;;;17.35;56.97;99940.00;5080642;27;45710;-79
2022/09/26 11:27:04;;;;;;;;;1.00;1.00;;;;;17.30;57.80;99945.28;5096803;27;48675;-79
2022/09/26 11:30:10;;;;;;;;;3.00;3.00;;;;;17.20;59.50;99950.44;5067891;28;45687;-78
2022/09/26 11:32:41;;;;;;;;;0.67;0.67;;;;;17.04;59.76;99958.97;5066143;28;45282;-79
2022/09/26 11:35:29;;;;;;;;;3.33;2.00;;;;;16.91;60.54;99932.38;5075243;27;46310;-78
2022/09/26 11:38:04;;;;;;;;;1.00;1.00;;;;;16.77;62.28;99942.56;5077995;28;46530;-77
2022/09/26 11:40:50;;;;;;;;;3.00;2.00;;;;;16.74;62.55;99943.03;5080527;28;45231;-77
2022/09/26 11:43:28;;;;;;;;;3.00;3.00;;;;;16.72;63.13;99927.19;5068059;28;45311;-77
2022/09/26 11:46:19;;;;;;;;;3.67;2.33;;;;;16.71;63.64;99928.25;5080719;27;45480;-77
2022/09/26 11:49:04;;;;;;;;;3.00;1.67;;;;;16.73;64.80;99931.47;5080544;28;45479;-79
2022/09/26 11:51:53;;;;;;;;;2.00;2.00;;;;;16.66;65.00;99920.88;5065032;28;45504;-78
2022/09/26 11:54:37;;;;;;;;;1.33;1.00;;;;;16.68;65.43;99923.34;5078384;28;45624;-78